Time;durP1;ratioP1;P1;durP2;ratioP2;P2;SDS_P1;SDS_P2;PMS_P1;PMS_P2;Temp;Humidity;BMP_temperature;BMP_pressure;BME280_temperature;BME280_humidity;BME280_pressure;Samples;Min_cycle;Max_cycle;Signal;HPM_P1;HPM_P2
2022/08/22 00:02:47;;;;;;;3.83;2.33;;;;;;;-148.56;100.00;61375.16;5031806;28;20706;-28
2022/08/22 00:06:25;;;;;;;6.28;2.40;;;;;;;-148.56;100.00;61375.16;5023276;28;20048;-27
2022/08/22 00:09:58;;;;;;;4.53;2.20;;;;;;;-148.56;100.00;61375.16;5022857;28;20040;-27
2022/08/22 00:13:30;;;;;;;4.82;2.63;;;;;;;-148.56;100.00;61375.16;5020294;28;20771;-27
2022/08/22 00:17:16;;;;;;;3.20;2.10;;;;;;;-148.56;100.00;61375.16;5021054;28;20033;-27
2022/08/22 00:21:13;;;;;;;3.20;2.28;;;;;;;-148.56;100.00;61375.16;5021092;28;20116;-27
2022/08/22 00:24:56;;;;;;;3.00;2.15;;;;;;;-148.56;100.00;61375.16;5022989;28;20678;-26
2022/08/22 00:28:33;;;;;;;3.78;2.10;;;;;;;-148.56;100.00;61375.16;5026052;28;20116;-26
2022/08/22 00:32:13;;;;;;;3.42;2.08;;;;;;;-148.56;100.00;61375.16;5014347;28;20570;-27
2022/08/22 00:35:41;;;;;;;3.38;2.13;;;;;;;-148.56;100.00;61375.16;5016298;28;20078;-26
2022/08/22 00:39:14;;;;;;;2.85;1.95;;;;;;;-148.56;100.00;61375.16;5021610;28;20041;-26
2022/08/22 00:43:00;;;;;;;3.60;2.33;;;;;;;-148.56;100.00;61375.16;5023492;28;20056;-26
2022/08/22 00:46:37;;;;;;;2.50;1.83;;;;;;;-148.56;100.00;61375.16;5022370;28;20108;-27
2022/08/22 00:50:19;;;;;;;2.88;2.03;;;;;;;-148.56;100.00;61375.16;5022466;28;20033;-26
2022/08/22 00:54:07;;;;;;;6.53;2.53;;;;;;;-148.56;100.00;61375.16;5023566;28;20067;-26
2022/08/22 00:57:43;;;;;;;4.45;2.50;;;;;;;-148.56;100.00;61375.16;5021677;28;20541;-28
2022/08/22 01:01:09;;;;;;;3.25;2.00;;;;;;;-148.56;100.00;61375.16;5020589;28;20055;-27
2022/08/22 01:05:01;;;;;;;5.30;2.50;;;;;;;-148.56;100.00;61375.16;5022015;28;20075;-26
2022/08/22 01:08:54;;;;;;;2.72;2.03;;;;;;;-148.56;100.00;61375.16;5024728;28;20712;-26
2022/08/22 01:12:30;;;;;;;3.63;2.00;;;;;;;-148.56;100.00;61375.16;5020735;28;20049;-26
2022/08/22 01:16:25;;;;;;;3.65;2.03;;;;;;;-148.56;100.00;61375.16;5021799;28;20041;-27
2022/08/22 01:19:56;;;;;;;4.07;2.22;;;;;;;-148.56;100.00;61375.16;5025098;28;20040;-26
2022/08/22 01:23:36;;;;;;;4.90;2.40;;;;;;;-148.56;100.00;61375.16;5022088;28;20029;-26
2022/08/22 01:27:35;;;;;;;4.38;2.47;;;;;;;-148.56;100.00;61375.16;5022621;28;20467;-26
2022/08/22 01:31:14;;;;;;;4.40;2.08;;;;;;;-148.56;100.00;61375.16;5023058;28;20610;-27
2022/08/22 01:34:53;;;;;;;3.60;2.50;;;;;;;-148.56;100.00;61375.16;5022123;28;20041;-26
2022/08/22 01:38:33;;;;;;;3.42;2.28;;;;;;;-148.56;100.00;61375.16;5022721;28;20136;-26
2022/08/22 01:42:36;;;;;;;3.88;2.00;;;;;;;-148.56;100.00;61375.16;5007805;28;20041;-25
2022/08/22 01:46:11;;;;;;;8.90;2.38;;;;;;;-148.56;100.00;61375.16;5016221;28;20049;-25
2022/08/22 01:49:48;;;;;;;4.05;2.25;;;;;;;-148.56;100.00;61375.16;5023918;28;20026;-26
2022/08/22 01:53:26;;;;;;;3.90;2.00;;;;;;;-148.56;100.00;61375.16;5017354;28;20029;-25
2022/08/22 01:56:57;;;;;;;4.35;2.65;;;;;;;-148.56;100.00;61375.16;5027011;28;20557;-24
2022/08/22 02:00:22;;;;;;;3.85;2.15;;;;;;;-148.56;100.00;61375.16;5029527;28;20028;-25
2022/08/22 02:03:52;;;;;;;4.22;2.13;;;;;;;-148.56;100.00;61375.16;5018116;28;20033;-26
2022/08/22 02:07:21;;;;;;;4.53;2.33;;;;;;;-148.56;100.00;61375.16;5024996;28;20171;-25
2022/08/22 02:11:03;;;;;;;8.05;2.60;;;;;;;-148.56;100.00;61375.16;5022861;28;20049;-25
2022/08/22 02:14:31;;;;;;;3.85;2.25;;;;;;;-148.56;100.00;61375.16;5027073;28;20676;-25
2022/08/22 02:18:04;;;;;;;4.95;2.47;;;;;;;-148.56;100.00;61375.16;5025487;28;20155;-25
2022/08/22 02:21:50;;;;;;;3.40;2.15;;;;;;;-148.56;100.00;61375.16;5024471;28;20036;-25
2022/08/22 02:25:27;;;;;;;4.30;2.15;;;;;;;-148.56;100.00;61375.16;5025959;28;20504;-25
2022/08/22 02:29:19;;;;;;;5.68;2.10;;;;;;;-148.56;100.00;61375.16;5030855;28;20045;-25
2022/08/22 02:32:51;;;;;;;2.97;2.00;;;;;;;-148.56;100.00;61375.16;5026862;28;20071;-26
2022/08/22 02:36:27;;;;;;;4.27;2.10;;;;;;;-148.56;100.00;61375.16;5027646;28;21051;-28
2022/08/22 02:40:21;;;;;;;7.00;2.40;;;;;;;-148.56;100.00;61375.16;5025611;28;20118;-25
2022/08/22 02:44:25;;;;;;;3.17;1.92;;;;;;;-148.56;100.00;61375.16;5028964;28;20029;-25
2022/08/22 02:47:55;;;;;;;3.20;1.90;;;;;;;-148.56;100.00;61375.16;5026457;28;20059;-26
2022/08/22 02:51:46;;;;;;;3.58;2.00;;;;;;;-148.56;100.00;61375.16;5028317;28;20037;-25
2022/08/22 02:55:33;;;;;;;3.38;1.95;;;;;;;-148.56;100.00;61375.16;5030683;28;20160;-25
2022/08/22 02:59:18;;;;;;;4.03;2.10;;;;;;;-148.56;100.00;61375.16;5027918;28;20468;-25
2022/08/22 03:02:45;;;;;;;5.47;1.90;;;;;;;-148.56;100.00;61375.16;5027006;28;20110;-25
2022/08/22 03:06:33;;;;;;;3.55;2.08;;;;;;;-148.56;100.00;61375.16;5026732;28;20040;-25
2022/08/22 03:10:16;;;;;;;2.88;2.30;;;;;;;-148.56;100.00;61375.16;5027130;28;20529;-25
2022/08/22 03:13:59;;;;;;;2.25;2.05;;;;;;;-148.56;100.00;61375.16;5026991;28;20032;-25
2022/08/22 03:17:34;;;;;;;4.57;2.40;;;;;;;-148.56;100.00;61375.16;5027260;28;20036;-24
2022/08/22 03:21:14;;;;;;;5.00;2.10;;;;;;;-148.56;100.00;61375.16;5026878;28;20037;-25
2022/08/22 03:24:51;;;;;;;4.38;2.10;;;;;;;-148.56;100.00;61375.16;5029246;28;20033;-25
2022/08/22 03:28:27;;;;;;;4.22;2.28;;;;;;;-148.56;100.00;61375.16;5033960;28;20433;-25
2022/08/22 03:32:03;;;;;;;4.38;2.20;;;;;;;-148.56;100.00;61375.16;5018614;28;20033;-25
2022/08/22 03:35:33;;;;;;;4.00;2.53;;;;;;;-148.56;100.00;61375.16;5027053;28;20554;-25
2022/08/22 03:39:46;;;;;;;5.60;2.45;;;;;;;-148.56;100.00;61375.16;5026732;28;20094;-25
2022/08/22 03:43:37;;;;;;;2.97;2.33;;;;;;;-148.56;100.00;61375.16;5025343;28;20496;-25
2022/08/22 03:47:49;;;;;;;4.97;2.30;;;;;;;-148.56;100.00;61375.16;5027102;28;20618;-25
2022/08/22 03:51:22;;;;;;;3.70;2.10;;;;;;;-148.56;100.00;61375.16;5025935;28;20034;-25
2022/08/22 03:55:00;;;;;;;;;;;;;;;-148.56;100.00;61375.16;5029329;28;20034;-25
2022/08/22 03:58:48;;;;;;;4.03;2.45;;;;;;;-148.56;100.00;61375.16;5027705;28;20477;-25
2022/08/22 04:02:18;;;;;;;3.85;2.25;;;;;;;-148.56;100.00;61375.16;5023426;28;20037;-25
2022/08/22 04:05:45;;;;;;;3.00;2.40;;;;;;;-148.56;100.00;61375.16;5026179;28;20034;-25
2022/08/22 04:09:28;;;;;;;3.53;2.58;;;;;;;-148.56;100.00;61375.16;5024326;28;20091;-25
2022/08/22 04:13:14;;;;;;;4.03;2.50;;;;;;;-148.56;100.00;61375.16;5026281;28;20091;-25
2022/08/22 04:16:50;;;;;;;2.78;2.20;;;;;;;-148.56;100.00;61375.16;5024820;28;20087;-24
2022/08/22 04:20:51;;;;;;;3.28;2.15;;;;;;;-148.56;100.00;61375.16;5026108;28;20029;-25
2022/08/22 04:24:33;;;;;;;2.83;2.28;;;;;;;-148.56;100.00;61375.16;5027466;28;20323;-25
2022/08/22 04:28:09;;;;;;;3.17;2.05;;;;;;;-148.56;100.00;61375.16;5029638;28;20034;-26
2022/08/22 04:31:40;;;;;;;3.53;2.17;;;;;;;-148.56;100.00;61375.16;5028971;28;20116;-25
2022/08/22 04:35:10;;;;;;;4.57;2.25;;;;;;;-148.56;100.00;61375.16;5027758;28;20132;-24
2022/08/22 04:38:47;;;;;;;3.97;2.30;;;;;;;-148.56;100.00;61375.16;5026643;28;20137;-26
2022/08/22 04:42:25;;;;;;;3.08;2.05;;;;;;;-148.56;100.00;61375.16;5025105;28;20040;-26
2022/08/22 04:45:50;;;;;;;3.35;2.10;;;;;;;-148.56;100.00;61375.16;5026865;28;20119;-27
2022/08/22 04:49:45;;;;;;;3.92;2.60;;;;;;;-148.56;100.00;61375.16;5027912;28;20037;-25
2022/08/22 04:53:33;;;;;;;3.10;2.25;;;;;;;-148.56;100.00;61375.16;5026624;28;20032;-26
2022/08/22 04:57:10;;;;;;;4.80;2.28;;;;;;;-148.56;100.00;61375.16;5028544;28;20043;-27
2022/08/22 05:00:41;;;;;;;3.38;2.10;;;;;;;-148.56;100.00;61375.16;5030443;28;20064;-26
2022/08/22 05:04:07;;;;;;;3.78;2.42;;;;;;;-148.56;100.00;61375.16;5028593;28;20566;-25
2022/08/22 05:07:34;;;;;;;3.03;2.13;;;;;;;-148.56;100.00;61375.16;5028579;28;20153;-25
2022/08/22 05:11:04;;;;;;;2.80;1.98;;;;;;;-148.56;100.00;61375.16;5022755;28;20567;-27
2022/08/22 05:14:34;;;;;;;4.03;2.22;;;;;;;-148.56;100.00;61375.16;5031067;28;20119;-28
2022/08/22 05:17:59;;;;;;;3.72;2.45;;;;;;;-148.56;100.00;61375.16;5025521;28;20667;-25
2022/08/22 05:21:24;;;;;;;4.53;2.35;;;;;;;-148.56;100.00;61375.16;5028154;28;20056;-26
2022/08/22 05:24:58;;;;;;;4.40;2.33;;;;;;;-148.56;100.00;61375.16;5028396;28;20032;-26
2022/08/22 05:28:28;;;;;;;2.53;2.00;;;;;;;-148.56;100.00;61375.16;5031995;28;20036;-26
2022/08/22 05:31:52;;;;;;;4.72;2.55;;;;;;;-148.56;100.00;61375.16;5031451;28;20029;-26
2022/08/22 05:35:22;;;;;;;3.88;2.33;;;;;;;-148.56;100.00;61375.16;5031151;28;20032;-25
2022/08/22 05:38:48;;;;;;;3.13;2.20;;;;;;;-148.56;100.00;61375.16;5032254;28;20402;-25
2022/08/22 05:42:25;;;;;;;3.67;2.33;;;;;;;-148.56;100.00;61375.16;5029981;28;20041;-25
2022/08/22 05:45:49;;;;;;;3.05;2.10;;;;;;;-148.56;100.00;61375.16;5031767;28;20037;-24
2022/08/22 05:49:19;;;;;;;3.47;2.15;;;;;;;-148.56;100.00;61375.16;5030565;28;20115;-27
2022/08/22 05:53:05;;;;;;;4.20;2.22;;;;;;;-148.56;100.00;61375.16;5026419;28;20653;-26
2022/08/22 05:56:50;;;;;;;3.58;2.30;;;;;;;-148.56;100.00;61375.16;5028167;28;20049;-25
2022/08/22 06:00:35;;;;;;;3.30;2.15;;;;;;;-148.56;100.00;61375.16;5030291;28;20646;-26
2022/08/22 06:04:07;;;;;;;4.07;2.30;;;;;;;-148.56;100.00;61375.16;5028270;28;20025;-26
2022/08/22 06:07:41;;;;;;;4.13;2.50;;;;;;;-148.56;100.00;61375.16;5031406;28;20075;-27
2022/08/22 06:11:26;;;;;;;2.65;2.22;;;;;;;-148.56;100.00;61375.16;5037130;28;20037;-27
2022/08/22 06:15:11;;;;;;;3.03;2.10;;;;;;;-148.56;100.00;61375.16;5027374;28;20051;-26
2022/08/22 06:18:37;;;;;;;5.53;2.38;;;;;;;-148.56;100.00;61375.16;5029838;28;20071;-28
2022/08/22 06:22:02;;;;;;;6.55;2.58;;;;;;;-148.56;100.00;61375.16;5021170;28;20029;-25
2022/08/22 06:25:28;;;;;;;7.20;2.50;;;;;;;-148.56;100.00;61375.16;5030850;28;20033;-25
2022/08/22 06:28:53;;;;;;;6.32;2.55;;;;;;;-148.56;100.00;61375.16;5023240;28;20059;-25
2022/08/22 06:32:19;;;;;;;4.85;2.42;;;;;;;-148.56;100.00;61375.16;5022401;28;20104;-25
2022/08/22 06:39:29;;;;;;;13.85;3.55;;;;;;;-148.56;100.00;61375.16;5028270;28;20098;-27
2022/08/22 06:42:53;;;;;;;22.33;4.75;;;;;;;-148.56;100.00;61375.16;5026067;28;20028;-25
2022/08/22 06:46:23;;;;;;;16.98;4.60;;;;;;;-148.56;100.00;61375.16;5027373;28;20617;-26
2022/08/22 06:49:49;;;;;;;19.45;4.45;;;;;;;-148.56;100.00;61375.16;5026466;28;20037;-26
2022/08/22 06:53:24;;;;;;;13.57;4.28;;;;;;;-148.56;100.00;61375.16;5024783;28;20040;-26
2022/08/22 06:56:50;;;;;;;22.27;5.38;;;;;;;-148.56;100.00;61375.16;5016578;28;20946;-25
2022/08/22 07:00:16;;;;;;;25.77;4.82;;;;;;;-148.56;100.00;61375.16;5018955;28;20033;-26
2022/08/22 07:04:04;;;;;;;12.63;4.00;;;;;;;-148.56;100.00;61375.16;5027473;28;20025;-24
2022/08/22 07:07:39;;;;;;;19.40;4.38;;;;;;;-148.56;100.00;61375.16;5026649;28;20047;-24
2022/08/22 07:11:06;;;;;;;15.35;4.40;;;;;;;-148.56;100.00;61375.16;5039418;28;20112;-24
2022/08/22 07:14:31;;;;;;;15.50;4.68;;;;;;;-148.56;100.00;61375.16;5026503;28;20057;-26
2022/08/22 07:17:59;;;;;;;12.07;4.40;;;;;;;-148.56;100.00;61375.16;5025778;28;20060;-24
2022/08/22 07:21:27;;;;;;;14.85;4.10;;;;;;;-148.56;100.00;61375.16;5025534;28;20168;-25
2022/08/22 07:24:52;;;;;;;19.00;4.50;;;;;;;-148.56;100.00;61375.16;5027068;28;20085;-27
2022/08/22 07:28:34;;;;;;;15.50;4.20;;;;;;;-148.56;100.00;61375.16;5025454;28;20499;-27
2022/08/22 07:32:31;;;;;;;11.38;4.10;;;;;;;-148.56;100.00;61375.16;5023582;28;20040;-24
2022/08/22 07:35:59;;;;;;;12.88;4.30;;;;;;;-148.56;100.00;61375.16;5021898;28;20048;-24
2022/08/22 07:39:36;;;;;;;12.20;3.85;;;;;;;-148.56;100.00;61375.16;5025686;28;20033;-25
2022/08/22 07:43:21;;;;;;;7.85;3.78;;;;;;;-148.56;100.00;61375.16;5024269;28;20067;-25
2022/08/22 07:47:08;;;;;;;12.80;3.97;;;;;;;-148.56;100.00;61375.16;5015735;28;20515;-25
2022/08/22 07:50:38;;;;;;;7.78;3.60;;;;;;;-148.56;100.00;61375.16;5028069;28;20041;-25
2022/08/22 07:54:23;;;;;;;6.90;3.65;;;;;;;-148.56;100.00;61375.16;5025844;28;20729;-26
2022/08/22 07:57:52;;;;;;;6.20;3.42;;;;;;;-148.56;100.00;61375.16;5024905;28;20061;-24
2022/08/22 08:01:17;;;;;;;6.40;3.72;;;;;;;-148.56;100.00;61375.16;5023941;28;20493;-25
2022/08/22 08:04:44;;;;;;;7.75;4.18;;;;;;;-148.56;100.00;61375.16;5026832;28;20041;-25
2022/08/22 08:08:18;;;;;;;8.40;3.92;;;;;;;-148.56;100.00;61375.16;5021518;28;20706;-25
2022/08/22 08:11:42;;;;;;;10.32;3.55;;;;;;;-148.56;100.00;61375.16;5026421;28;20083;-25
2022/08/22 08:15:07;;;;;;;5.65;3.60;;;;;;;-148.56;100.00;61375.16;5020276;28;20276;-26
2022/08/22 08:18:32;;;;;;;10.10;4.18;;;;;;;-148.56;100.00;61375.16;5026735;28;20035;-25
2022/08/22 08:21:57;;;;;;;7.68;3.50;;;;;;;-148.56;100.00;61375.16;5020614;28;20075;-25
2022/08/22 08:25:28;;;;;;;8.00;3.25;;;;;;;-148.56;100.00;61375.16;5029334;28;20117;-25
2022/08/22 08:28:53;;;;;;;7.75;3.30;;;;;;;-148.56;100.00;61375.16;5021812;28;20021;-25
2022/08/22 08:32:21;;;;;;;6.88;3.60;;;;;;;-148.56;100.00;61375.16;5024642;28;20111;-27
2022/08/22 08:35:48;;;;;;;7.93;3.65;;;;;;;-148.56;100.00;61375.16;5025006;28;20032;-25
2022/08/22 08:39:23;;;;;;;7.85;3.72;;;;;;;-148.56;100.00;61375.16;5025537;28;20102;-25
2022/08/22 08:46:56;;;;;;;7.45;3.60;;;;;;;-148.56;100.00;61375.16;5025478;28;20048;-25
2022/08/22 08:50:36;;;;;;;6.25;3.55;;;;;;;-148.56;100.00;61375.16;5024937;28;20025;-25
2022/08/22 08:54:23;;;;;;;6.32;3.38;;;;;;;-148.56;100.00;61375.16;5024147;28;20067;-26
2022/08/22 08:58:05;;;;;;;7.75;3.58;;;;;;;-148.56;100.00;61375.16;5025408;28;20033;-25
2022/08/22 09:01:38;;;;;;;9.25;3.72;;;;;;;-148.56;100.00;61375.16;5027262;28;20033;-24
2022/08/22 09:05:21;;;;;;;7.18;3.15;;;;;;;-148.56;100.00;61375.16;5026985;28;20033;-27
2022/08/22 09:09:00;;;;;;;10.93;3.60;;;;;;;-148.56;100.00;61375.16;5032692;28;20479;-25
2022/08/22 09:13:00;;;;;;;6.15;3.13;;;;;;;-148.56;100.00;61375.16;5030325;28;20045;-24
2022/08/22 09:16:45;;;;;;;6.18;3.10;;;;;;;-148.56;100.00;61375.16;5029760;28;20056;-25
2022/08/22 09:20:33;;;;;;;5.00;3.00;;;;;;;-148.56;100.00;61375.16;5026451;28;20033;-26
2022/08/22 09:24:09;;;;;;;6.15;3.38;;;;;;;-148.56;100.00;61375.16;5019595;28;20025;-26
2022/08/22 09:27:52;;;;;;;7.28;3.60;;;;;;;-148.56;100.00;61375.16;5026677;28;20041;-24
2022/08/22 09:31:31;;;;;;;7.20;4.10;;;;;;;-148.56;100.00;61375.16;5030561;28;20030;-25
2022/08/22 09:35:10;;;;;;;8.63;3.45;;;;;;;-148.56;100.00;61375.16;5026845;28;20025;-25
2022/08/22 09:38:56;;;;;;;9.75;3.85;;;;;;;-148.56;100.00;61375.16;5026883;28;20095;-26
2022/08/22 09:42:44;;;;;;;14.55;4.70;;;;;;;-148.56;100.00;61375.16;5026446;28;20822;-26
2022/08/22 09:46:55;;;;;;;12.80;4.57;;;;;;;-148.56;100.00;61375.16;5027921;28;20064;-25
2022/08/22 09:50:23;;;;;;;11.40;4.30;;;;;;;-148.56;100.00;61375.16;5032644;28;20039;-25
2022/08/22 09:53:55;;;;;;;9.80;4.38;;;;;;;-148.56;100.00;61375.16;5029803;28;21951;-25
2022/08/22 09:58:01;;;;;;;12.23;4.43;;;;;;;-148.56;100.00;61375.16;5027347;28;20240;-26
2022/08/22 10:01:29;;;;;;;15.80;4.55;;;;;;;-148.56;100.00;61375.16;5032981;28;20052;-25
2022/08/22 10:05:37;;;;;;;11.25;4.18;;;;;;;-148.56;100.00;61375.16;5027686;28;20553;-25
2022/08/22 10:09:10;;;;;;;12.30;4.35;;;;;;;-148.56;100.00;61375.16;5031802;28;20032;-25
2022/08/22 10:12:50;;;;;;;11.73;4.32;;;;;;;-148.56;100.00;61375.16;5026076;28;20789;-23
2022/08/22 10:16:16;;;;;;;9.50;4.05;;;;;;;-148.56;100.00;61375.16;5032300;28;20040;-25
2022/08/22 10:19:50;;;;;;;7.93;3.83;;;;;;;-148.56;100.00;61375.16;5032595;28;20618;-24
2022/08/22 10:23:29;;;;;;;9.50;4.13;;;;;;;-148.56;100.00;61375.16;5032230;28;20587;-25
2022/08/22 10:27:08;;;;;;;7.03;3.63;;;;;;;-148.56;100.00;61375.16;5025394;28;20957;-25
2022/08/22 10:30:46;;;;;;;5.45;3.30;;;;;;;-148.56;100.00;61375.16;5031617;28;20145;-24
2022/08/22 10:34:20;;;;;;;7.97;3.50;;;;;;;-148.56;100.00;61375.16;5020176;28;20033;-27
2022/08/22 10:38:15;;;;;;;7.40;3.75;;;;;;;-148.56;100.00;61375.16;5030670;28;20058;-26
2022/08/22 10:41:55;;;;;;;7.97;3.60;;;;;;;-148.56;100.00;61375.16;5026525;28;20883;-25
2022/08/22 10:45:33;;;;;;;6.57;3.70;;;;;;;-148.56;100.00;61375.16;5024404;28;20164;-25
2022/08/22 10:49:01;;;;;;;6.40;3.85;;;;;;;-148.56;100.00;61375.16;5022784;28;20091;-26
2022/08/22 10:52:31;;;;;;;8.57;3.40;;;;;;;-148.56;100.00;61375.16;5028573;28;20035;-24
2022/08/22 10:56:07;;;;;;;11.32;4.18;;;;;;;-148.56;100.00;61375.16;5022950;28;20050;-25
2022/08/22 11:00:03;;;;;;;8.10;3.10;;;;;;;-148.56;100.00;61375.16;5019115;28;20669;-25
2022/08/22 11:03:31;;;;;;;7.53;3.75;;;;;;;-148.56;100.00;61375.16;5023279;28;20127;-25
2022/08/22 11:06:58;;;;;;;7.55;3.58;;;;;;;-148.56;100.00;61375.16;5024977;28;20326;-23
2022/08/22 11:10:28;;;;;;;6.30;2.92;;;;;;;-148.56;100.00;61375.16;5023566;28;20036;-27
2022/08/22 11:14:11;;;;;;;8.45;3.20;;;;;;;-148.56;100.00;61375.16;5025316;28;20928;-26
2022/08/22 11:17:53;;;;;;;;;;;;;;;-148.56;100.00;61375.16;5026352;28;20112;-24
2022/08/22 11:21:36;;;;;;;5.70;2.78;;;;;;;-148.56;100.00;61375.16;5026202;28;19944;-24
2022/08/22 11:25:42;;;;;;;6.20;2.78;;;;;;;-148.56;100.00;61375.16;5020021;28;20046;-25
2022/08/22 11:29:50;;;;;;;8.73;2.70;;;;;;;-148.56;100.00;61375.16;5016978;28;20095;-25
2022/08/22 11:33:19;;;;;;;3.97;2.53;;;;;;;-148.56;100.00;61375.16;5013272;28;20025;-26
2022/08/22 11:36:49;;;;;;;6.28;2.80;;;;;;;-148.56;100.00;61375.16;5023581;28;20036;-27
2022/08/22 11:40:35;;;;;;;7.05;2.65;;;;;;;-148.56;100.00;61375.16;5025136;28;20068;-25
2022/08/22 11:44:10;;;;;;;6.72;2.85;;;;;;;-148.56;100.00;61375.16;5024848;28;20890;-24
2022/08/22 11:47:40;;;;;;;7.07;2.70;;;;;;;-148.56;100.00;61375.16;5013048;28;20025;-25
2022/08/22 11:51:33;;;;;;;4.43;2.50;;;;;;;-148.56;100.00;61375.16;5023585;28;20493;-26
2022/08/22 11:55:20;;;;;;;6.43;2.83;;;;;;;-148.56;100.00;61375.16;5021022;28;20507;-25
2022/08/22 11:59:01;;;;;;;5.72;3.00;;;;;;;-148.56;100.00;61375.16;5020181;28;20086;-28
2022/08/22 12:02:53;;;;;;;6.63;2.95;;;;;;;-148.56;100.00;61375.16;5019802;28;20033;-27
2022/08/22 12:06:21;;;;;;;4.40;2.72;;;;;;;-148.56;100.00;61375.16;5024762;28;22045;-26
2022/08/22 12:09:50;;;;;;;11.35;2.90;;;;;;;-148.56;100.00;61375.16;5026019;28;20075;-25
2022/08/22 12:13:49;;;;;;;8.90;2.70;;;;;;;-148.56;100.00;61375.16;5023202;28;20029;-28
2022/08/22 12:17:22;;;;;;;5.57;2.70;;;;;;;-148.56;100.00;61375.16;5025359;28;20043;-25
2022/08/22 12:20:49;;;;;;;8.25;2.92;;;;;;;-148.56;100.00;61375.16;5026361;28;20032;-24
2022/08/22 12:24:17;;;;;;;5.68;2.38;;;;;;;-148.56;100.00;61375.16;5027242;28;20033;-25
2022/08/22 12:27:56;;;;;;;6.80;2.78;;;;;;;-148.56;100.00;61375.16;5021240;28;20083;-24
2022/08/22 12:31:57;;;;;;;5.30;2.72;;;;;;;-148.56;100.00;61375.16;5025579;28;20047;-23
2022/08/22 12:35:48;;;;;;;7.97;2.70;;;;;;;-148.56;100.00;61375.16;5024213;28;20029;-23
2022/08/22 12:40:09;;;;;;;7.13;2.30;;;;;;;-148.56;100.00;61375.16;5025049;28;20026;-25
2022/08/22 12:43:51;;;;;;;8.30;2.55;;;;;;;-148.56;100.00;61375.16;5008640;28;20215;-25
2022/08/22 12:48:03;;;;;;;7.35;2.60;;;;;;;-148.56;100.00;61375.16;5023075;28;20093;-23
2022/08/22 12:51:43;;;;;;;6.45;2.35;;;;;;;-148.56;100.00;61375.16;5005624;28;20067;-24
2022/08/22 12:55:19;;;;;;;7.03;2.60;;;;;;;-148.56;100.00;61375.16;5006964;28;20038;-24
2022/08/22 12:59:09;;;;;;;10.48;5.40;;;;;;;-148.56;100.00;61375.16;5024302;28;20146;-24
2022/08/22 13:02:33;;;;;;;22.95;9.15;;;;;;;-148.56;100.00;61375.16;5015990;28;20032;-27
2022/08/22 13:06:25;;;;;;;27.38;11.18;;;;;;;-148.56;100.00;61375.16;5018514;28;20033;-25
2022/08/22 13:09:57;;;;;;;35.70;12.32;;;;;;;-148.56;100.00;61375.16;5023685;28;21170;-25
2022/08/22 13:13:36;;;;;;;25.57;10.67;;;;;;;-148.56;100.00;61375.16;5023541;28;20032;-28
2022/08/22 13:17:05;;;;;;;30.40;10.85;;;;;;;-148.56;100.00;61375.16;5023466;28;20035;-26
2022/08/22 13:20:49;;;;;;;26.15;10.25;;;;;;;-148.56;100.00;61375.16;5029491;28;20103;-23
2022/08/22 13:24:47;;;;;;;20.23;9.20;;;;;;;-148.56;100.00;61375.16;5021858;28;21370;-24
2022/08/22 13:28:16;;;;;;;22.13;9.48;;;;;;;-148.56;100.00;61375.16;5021033;28;20415;-22
2022/08/22 13:31:40;;;;;;;19.45;8.55;;;;;;;-148.56;100.00;61375.16;5026898;28;20084;-23
2022/08/22 13:35:04;;;;;;;20.88;8.57;;;;;;;-148.56;100.00;61375.16;5024090;28;20056;-25
2022/08/22 13:38:32;;;;;;;18.58;8.15;;;;;;;-148.56;100.00;61375.16;5019563;28;20052;-25
2022/08/22 13:41:57;;;;;;;20.75;8.60;;;;;;;-148.56;100.00;61375.16;5021754;28;20069;-25
2022/08/22 13:45:25;;;;;;;16.08;7.32;;;;;;;-148.56;100.00;61375.16;5013799;28;20028;-27
2022/08/22 13:48:52;;;;;;;17.15;7.43;;;;;;;-148.56;100.00;61375.16;5027560;28;20172;-25
2022/08/22 13:52:33;;;;;;;18.15;6.85;;;;;;;-148.56;100.00;61375.16;5025056;28;20553;-26
2022/08/22 13:56:16;;;;;;;16.45;6.95;;;;;;;-148.56;100.00;61375.16;5027382;28;20033;-24
2022/08/22 14:00:00;;;;;;;14.27;6.45;;;;;;;-148.56;100.00;61375.16;5027990;28;20590;-25
2022/08/22 14:03:46;;;;;;;15.35;6.40;;;;;;;-148.56;100.00;61375.16;5026121;28;20096;-26
2022/08/22 14:07:19;;;;;;;13.02;5.80;;;;;;;-148.56;100.00;61375.16;5027517;28;21514;-26
2022/08/22 14:10:52;;;;;;;15.18;6.25;;;;;;;-148.56;100.00;61375.16;5019210;28;20041;-24
2022/08/22 14:14:23;;;;;;;9.48;4.82;;;;;;;-148.56;100.00;61375.16;5025415;28;20028;-23
2022/08/22 14:17:49;;;;;;;9.48;4.72;;;;;;;-148.56;100.00;61375.16;5025183;28;20091;-28
2022/08/22 14:21:26;;;;;;;9.63;5.30;;;;;;;-148.56;100.00;61375.16;5017235;28;20572;-25
2022/08/22 14:24:52;;;;;;;12.27;4.78;;;;;;;-148.56;100.00;61375.16;5029888;28;20040;-27
2022/08/22 14:28:55;;;;;;;7.88;4.18;;;;;;;-148.56;100.00;61375.16;5029593;28;20032;-32
2022/08/22 14:32:19;;;;;;;9.15;4.47;;;;;;;-148.56;100.00;61375.16;4971816;28;20116;-29
2022/08/22 14:35:46;;;;;;;10.40;4.82;;;;;;;-148.56;100.00;61375.16;4977914;28;20115;-29
2022/08/22 14:39:34;;;;;;;6.75;3.97;;;;;;;-148.56;100.00;61375.16;5024439;28;20047;-30
2022/08/22 14:43:30;;;;;;;7.40;4.13;;;;;;;-148.56;100.00;61375.16;5028416;28;20116;-31
2022/08/22 14:46:56;;;;;;;8.88;4.55;;;;;;;-148.56;100.00;61375.16;5025115;28;20048;-31
2022/08/22 14:50:35;;;;;;;8.23;4.60;;;;;;;-148.56;100.00;61375.16;5016838;28;20710;-33
2022/08/22 14:54:09;;;;;;;6.30;3.85;;;;;;;-148.56;100.00;61375.16;5026127;28;20033;-31
2022/08/22 14:57:33;;;;;;;9.18;3.90;;;;;;;-148.56;100.00;61375.16;5025460;28;20037;-31
2022/08/22 15:00:57;;;;;;;10.48;4.10;;;;;;;-148.56;100.00;61375.16;5023201;28;20064;-29
2022/08/22 15:04:33;;;;;;;9.07;4.05;;;;;;;-148.56;100.00;61375.16;5025260;28;20488;-29
2022/08/22 15:07:58;;;;;;;11.38;3.88;;;;;;;-148.56;100.00;61375.16;5025392;28;20064;-29
2022/08/22 15:11:29;;;;;;;12.45;4.10;;;;;;;-148.56;100.00;61375.16;5017695;28;20526;-29
2022/08/22 15:15:05;;;;;;;8.45;4.50;;;;;;;-148.56;100.00;61375.16;5013176;28;20028;-28
2022/08/22 15:18:40;;;;;;;11.90;4.47;;;;;;;-148.56;100.00;61375.16;5021902;28;20087;-28
2022/08/22 15:22:08;;;;;;;10.55;4.00;;;;;;;-148.56;100.00;61375.16;5024242;28;20041;-28
2022/08/22 15:25:34;;;;;;;10.45;4.30;;;;;;;-148.56;100.00;61375.16;5028027;28;20104;-28
2022/08/22 15:29:17;;;;;;;9.07;3.97;;;;;;;-148.56;100.00;61375.16;5016320;28;20369;-28
2022/08/22 15:32:42;;;;;;;9.98;4.60;;;;;;;-148.56;100.00;61375.16;5026542;28;20041;-28
2022/08/22 15:36:07;;;;;;;8.93;4.80;;;;;;;-148.56;100.00;61375.16;5019729;28;20082;-28
2022/08/22 15:39:32;;;;;;;15.77;4.65;;;;;;;-148.56;100.00;61375.16;5026989;28;20116;-29
2022/08/22 15:42:56;;;;;;;9.25;4.47;;;;;;;-148.56;100.00;61375.16;5025505;28;20059;-29
2022/08/22 15:46:38;;;;;;;10.95;4.50;;;;;;;-148.56;100.00;61375.16;5023880;28;20311;-29
2022/08/22 15:50:07;;;;;;;8.35;4.03;;;;;;;-148.56;100.00;61375.16;5017482;28;20111;-28
2022/08/22 15:53:53;;;;;;;9.07;4.00;;;;;;;-148.56;100.00;61375.16;5042740;28;20033;-28
2022/08/22 15:57:21;;;;;;;9.60;4.25;;;;;;;-148.56;100.00;61375.16;5025358;28;20041;-29
2022/08/22 16:01:01;;;;;;;7.90;3.78;;;;;;;-148.56;100.00;61375.16;5026288;28;20032;-29
2022/08/22 16:04:30;;;;;;;10.35;4.18;;;;;;;-148.56;100.00;61375.16;5021174;28;20128;-28
2022/08/22 16:07:57;;;;;;;7.85;4.05;;;;;;;-148.56;100.00;61375.16;5014243;28;20029;-29
2022/08/22 16:11:28;;;;;;;12.05;4.18;;;;;;;-148.56;100.00;61375.16;5027195;28;20120;-30
2022/08/22 16:15:29;;;;;;;11.02;4.22;;;;;;;-148.56;100.00;61375.16;5026667;28;20083;-29
2022/08/22 16:18:53;;;;;;;7.18;4.10;;;;;;;-148.56;100.00;61375.16;5024835;28;20030;-28
2022/08/22 16:22:20;;;;;;;10.60;4.43;;;;;;;-148.56;100.00;61375.16;5027536;28;20126;-29
2022/08/22 16:25:57;;;;;;;9.75;4.80;;;;;;;-148.56;100.00;61375.16;5027987;28;20131;-30
2022/08/22 16:29:26;;;;;;;8.32;4.30;;;;;;;-148.56;100.00;61375.16;5029619;28;20069;-29
2022/08/22 16:32:50;;;;;;;10.25;4.80;;;;;;;-148.56;100.00;61375.16;5030755;28;20033;-31